createdAt,value
2023-04-20T00:01:54.838Z,57.50
2023-04-20T00:04:24.901Z,58.10
2023-04-20T00:06:59.264Z,60.80
2023-04-20T00:09:29.966Z,60.50
2023-04-20T00:11:59.154Z,58.00
2023-04-20T00:14:32.007Z,57.60
2023-04-20T00:16:59.956Z,57.30
2023-04-20T00:19:28.310Z,62.70
2023-04-20T00:21:56.260Z,63.40
2023-04-20T00:24:24.125Z,59.80
2023-04-20T00:26:54.942Z,57.70
2023-04-20T00:29:24.195Z,57.10
2023-04-20T00:31:58.051Z,58.60
2023-04-20T00:34:26.024Z,58.70
2023-04-20T00:36:59.313Z,58.40
2023-04-20T00:39:30.312Z,64.00
2023-04-20T00:42:07.559Z,68.70
2023-04-20T00:44:39.630Z,61.00
2023-04-20T00:47:07.807Z,57.90
2023-04-20T00:49:40.775Z,59.20
2023-04-20T00:52:11.856Z,61.50
2023-04-20T00:54:40.692Z,58.70
2023-04-20T00:57:08.734Z,65.30
2023-04-20T00:59:43.890Z,68.90
2023-04-20T01:02:12.051Z,60.90
2023-04-20T01:04:47.714Z,59.10
2023-04-20T01:07:15.660Z,59.10
2023-04-20T01:09:51.978Z,57.60
2023-04-20T01:12:23.098Z,59.30
2023-04-20T01:14:52.669Z,66.70
2023-04-20T01:17:24.403Z,64.20
2023-04-20T01:20:04.910Z,62.90
2023-04-20T01:22:34.142Z,61.10
2023-04-20T01:25:05.753Z,61.10
2023-04-20T01:27:38.988Z,60.90
2023-04-20T01:30:08.146Z,60.80
2023-04-20T01:32:36.288Z,59.20
2023-04-20T01:35:08.248Z,66.40
2023-04-20T01:37:37.627Z,63.80
2023-04-20T01:40:06.622Z,57.60
2023-04-20T01:42:37.556Z,57.50
2023-04-20T01:45:06.778Z,57.00
2023-04-20T01:47:45.443Z,59.60
2023-04-20T01:50:16.485Z,59.90
2023-04-20T01:52:48.703Z,61.30
2023-04-20T01:55:17.475Z,63.50
2023-04-20T01:57:46.758Z,63.40
2023-04-20T02:00:14.970Z,60.70
2023-04-20T02:02:43.113Z,59.90
2023-04-20T02:05:11.452Z,60.60
2023-04-20T02:07:39.315Z,60.10
2023-04-20T02:10:09.608Z,61.70
2023-04-20T02:12:37.478Z,65.70
2023-04-20T02:15:06.090Z,61.00
2023-04-20T02:17:34.015Z,58.90
2023-04-20T02:20:01.905Z,59.80
2023-04-20T02:22:34.918Z,60.90
2023-04-20T02:25:08.063Z,66.40
2023-04-20T02:27:36.149Z,63.40
2023-04-20T02:30:08.307Z,62.90
2023-04-20T02:32:36.290Z,64.50
2023-04-20T02:35:04.986Z,63.70
2023-04-20T02:37:39.272Z,64.80
2023-04-20T02:40:11.822Z,64.40
2023-04-20T02:42:39.805Z,65.10
2023-04-20T02:45:08.868Z,65.60
2023-04-20T02:47:45.456Z,66.50
2023-04-20T02:50:13.601Z,68.20
2023-04-20T02:52:44.261Z,68.20
2023-04-20T02:55:13.501Z,68.40
2023-04-20T02:57:41.447Z,70.50
2023-04-20T03:00:10.313Z,69.70
2023-04-20T03:02:38.543Z,71.80
2023-04-20T03:05:09.798Z,73.40
2023-04-20T03:07:37.669Z,75.40
2023-04-20T03:10:09.875Z,75.40
2023-04-20T03:12:39.094Z,76.50
2023-04-20T03:15:11.611Z,77.00
2023-04-20T03:17:41.826Z,77.60
2023-04-20T03:20:16.470Z,78.00
2023-04-20T03:22:47.362Z,78.70
2023-04-20T03:25:15.314Z,79.90
2023-04-20T03:27:47.447Z,80.50
2023-04-20T03:30:15.917Z,81.30
2023-04-20T03:32:43.778Z,82.50
2023-04-20T03:35:11.743Z,82.90
2023-04-20T03:37:39.669Z,83.20
2023-04-20T03:40:09.378Z,83.90
2023-04-20T03:42:38.171Z,84.90
2023-04-20T03:45:08.689Z,85.30
2023-04-20T03:47:39.142Z,86.10
2023-04-20T03:50:10.644Z,86.70
2023-04-20T03:52:40.975Z,87.10
2023-04-20T03:55:11.980Z,87.80
2023-04-20T03:57:42.872Z,88.30
2023-04-20T04:00:13.926Z,88.40
2023-04-20T04:02:41.912Z,88.20
2023-04-20T04:05:10.159Z,88.60
2023-04-20T04:07:38.267Z,89.10
2023-04-20T04:10:06.990Z,89.60
2023-04-20T04:12:34.850Z,89.80
2023-04-20T04:15:02.783Z,90.00
2023-04-20T04:17:32.062Z,90.30
2023-04-20T04:19:59.997Z,90.30
2023-04-20T04:22:30.678Z,90.20
2023-04-20T04:24:58.548Z,90.00
2023-04-20T04:27:34.646Z,90.20
2023-04-20T04:30:03.075Z,90.50
2023-04-20T04:32:34.469Z,90.50
2023-04-20T04:35:05.884Z,90.60
2023-04-20T04:37:33.762Z,91.00
2023-04-20T04:40:03.790Z,91.10
2023-04-20T04:42:39.542Z,90.70
2023-04-20T04:45:10.194Z,90.80
2023-04-20T04:47:41.206Z,91.10
2023-04-20T04:50:10.488Z,91.20
2023-04-20T04:52:40.765Z,90.90
2023-04-20T04:55:12.149Z,91.00
2023-04-20T04:57:43.005Z,91.00
2023-04-20T05:00:12.577Z,91.10
2023-04-20T05:02:45.021Z,91.00
2023-04-20T05:05:12.961Z,91.00
2023-04-20T05:07:48.251Z,90.80
2023-04-20T05:10:16.126Z,91.30
2023-04-20T05:12:46.461Z,91.10
2023-04-20T05:15:14.367Z,91.40
2023-04-20T05:17:42.258Z,91.40
2023-04-20T05:20:26.802Z,91.80
2023-04-20T05:22:57.497Z,92.00
2023-04-20T05:25:25.606Z,92.30
2023-04-20T05:27:53.512Z,92.50
2023-04-20T05:30:22.216Z,92.60
2023-04-20T05:32:55.558Z,92.50
2023-04-20T05:35:27.804Z,92.80
2023-04-20T05:37:55.693Z,93.70
2023-04-20T05:40:26.901Z,94.40
2023-04-20T05:43:00.921Z,94.90
2023-04-20T05:45:33.051Z,95.30
2023-04-20T05:48:10.597Z,95.90
2023-04-20T05:50:40.291Z,97.30
2023-04-20T05:53:08.149Z,98.40
2023-04-20T05:55:39.035Z,99.20
2023-04-20T05:58:06.938Z,99.90
2023-04-20T06:00:35.580Z,99.90
2023-04-20T06:03:04.167Z,99.90
2023-04-20T06:05:32.288Z,99.90
2023-04-20T06:08:09.832Z,99.90
2023-04-20T06:10:37.736Z,99.90
2023-04-20T06:13:10.253Z,99.90
2023-04-20T06:15:43.428Z,99.90
2023-04-20T06:18:11.469Z,99.90
2023-04-20T06:20:40.364Z,99.90
2023-04-20T06:23:18.253Z,99.90
2023-04-20T06:25:52.006Z,99.90
2023-04-20T06:28:19.877Z,99.90
2023-04-20T06:30:47.729Z,99.90
2023-04-20T06:33:18.893Z,99.90
2023-04-20T06:35:46.805Z,99.90
2023-04-20T06:38:16.025Z,99.90
2023-04-20T06:40:46.995Z,99.90
2023-04-20T06:46:05.532Z,99.90
2023-04-20T06:48:43.244Z,99.90
2023-04-20T06:51:13.216Z,99.90
2023-04-20T06:53:42.429Z,99.90
2023-04-20T06:56:11.357Z,99.90
2023-04-20T06:58:39.277Z,99.90
2023-04-20T07:01:07.173Z,99.90
2023-04-20T07:03:35.244Z,99.90
2023-04-20T07:06:03.292Z,99.90
2023-04-20T07:08:39.629Z,99.90
2023-04-20T07:11:09.135Z,99.90
2023-04-20T07:13:37.025Z,99.90
2023-04-20T07:16:05.152Z,99.90
2023-04-20T07:18:34.751Z,99.90
2023-04-20T07:21:03.400Z,99.90
2023-04-20T07:23:31.279Z,99.90
2023-04-20T07:25:59.565Z,99.90
2023-04-20T07:28:28.930Z,99.90
2023-04-20T07:30:56.774Z,99.90
2023-04-20T07:33:27.702Z,99.90
2023-04-20T07:35:55.580Z,99.90
2023-04-20T07:38:26.680Z,99.90
2023-04-20T07:41:02.313Z,99.90
2023-04-20T07:43:31.551Z,99.90
2023-04-20T07:46:05.683Z,99.90
2023-04-20T07:48:37.029Z,99.90
2023-04-20T07:51:07.430Z,99.90
2023-04-20T07:53:41.346Z,99.90
2023-04-20T07:56:12.369Z,99.90
2023-04-20T07:58:41.612Z,99.90
2023-04-20T08:01:12.510Z,99.90
2023-04-20T08:03:49.258Z,99.90
2023-04-20T08:06:17.345Z,99.90
2023-04-20T08:08:50.247Z,99.90
2023-04-20T08:11:18.144Z,99.90
2023-04-20T08:14:05.092Z,99.90
2023-04-20T08:16:41.918Z,99.90
2023-04-20T08:19:16.074Z,99.90
2023-04-20T08:21:43.998Z,99.90
2023-04-20T08:24:14.840Z,99.90
2023-04-20T08:27:04.827Z,99.90
2023-04-20T08:29:34.031Z,99.90
2023-04-20T08:32:01.975Z,99.90
2023-04-20T08:34:32.343Z,99.90
2023-04-20T08:37:12.476Z,99.90
2023-04-20T08:39:40.468Z,99.90
2023-04-20T08:42:08.411Z,99.90
2023-04-20T08:44:37.743Z,99.90
2023-04-20T08:47:05.798Z,99.90
2023-04-20T08:49:45.315Z,99.90
2023-04-20T08:52:13.333Z,99.90
2023-04-20T08:55:07.272Z,99.90
2023-04-20T08:57:38.270Z,99.90
2023-04-20T09:00:14.034Z,99.90
2023-04-20T09:02:54.817Z,99.90
2023-04-20T09:05:29.862Z,99.90
2023-04-20T09:07:59.788Z,99.90
2023-04-20T09:10:39.940Z,99.90
2023-04-20T09:13:26.040Z,99.90
2023-04-20T09:15:58.336Z,99.90
2023-04-20T09:18:26.233Z,99.90
2023-04-20T09:20:54.099Z,99.90
2023-04-20T09:23:30.597Z,99.90
2023-04-20T09:25:58.455Z,99.90
2023-04-20T09:28:39.295Z,99.90
2023-04-20T09:31:18.910Z,99.90
2023-04-20T09:34:00.664Z,99.90
2023-04-20T09:36:38.763Z,99.90
2023-04-20T09:39:09.864Z,99.90
2023-04-20T09:41:40.647Z,99.90
2023-04-20T09:44:09.244Z,99.90
2023-04-20T09:46:40.418Z,99.90
2023-04-20T09:49:13.941Z,99.90
2023-04-20T09:51:46.035Z,99.90
2023-04-20T09:54:15.859Z,99.90
2023-04-20T09:56:47.753Z,99.90
2023-04-20T09:59:20.960Z,99.90
2023-04-20T10:01:56.257Z,99.90
2023-04-20T10:04:27.123Z,99.90
2023-04-20T10:06:57.831Z,99.90
2023-04-20T10:09:27.121Z,99.90
2023-04-20T10:12:08.058Z,99.90
2023-04-20T10:14:36.545Z,99.90
2023-04-20T10:17:11.362Z,99.90
2023-04-20T10:19:43.704Z,99.90
2023-04-20T10:22:29.110Z,99.90
2023-04-20T10:24:57.004Z,99.90
2023-04-20T10:27:28.069Z,99.90
2023-04-20T10:29:55.940Z,99.90
2023-04-20T10:32:39.784Z,99.90
2023-04-20T10:35:16.092Z,99.90
2023-04-20T10:37:51.059Z,99.90
2023-04-20T10:40:25.833Z,99.90
2023-04-20T10:42:53.761Z,99.90
2023-04-20T10:45:21.975Z,99.90
2023-04-20T10:47:54.838Z,99.90
2023-04-20T10:50:23.385Z,99.90
2023-04-20T10:53:19.174Z,99.90
2023-04-20T10:55:47.494Z,99.90
2023-04-20T10:58:25.511Z,99.90
2023-04-20T11:01:03.753Z,99.40
2023-04-20T11:03:35.593Z,99.00
2023-04-20T11:06:09.430Z,98.50
2023-04-20T11:08:42.169Z,98.80
2023-04-20T11:11:20.789Z,99.50
2023-04-20T11:13:49.020Z,98.40
2023-04-20T11:16:20.773Z,97.80
2023-04-20T11:18:58.093Z,98.10
2023-04-20T11:21:50.800Z,97.70
2023-04-20T11:24:26.309Z,97.50
2023-04-20T11:27:05.365Z,97.40
2023-04-20T11:29:42.513Z,97.60
2023-04-20T11:32:20.320Z,97.10
2023-04-20T11:35:06.561Z,97.00
2023-04-20T11:37:48.820Z,96.80
2023-04-20T11:40:19.615Z,97.00
2023-04-20T11:42:47.581Z,96.60
2023-04-20T11:45:18.806Z,96.00
2023-04-20T11:47:47.178Z,96.30
2023-04-20T11:50:16.482Z,96.20
2023-04-20T11:52:50.220Z,96.40
2023-04-20T11:55:21.042Z,96.00
2023-04-20T11:57:50.007Z,96.30
2023-04-20T12:00:19.307Z,96.30
2023-04-20T12:02:50.384Z,96.90
2023-04-20T12:05:19.749Z,93.90
2023-04-20T12:07:50.630Z,93.00
2023-04-20T12:10:21.697Z,92.50
2023-04-20T12:12:53.399Z,93.10
2023-04-20T12:15:21.378Z,93.30
2023-04-20T12:17:49.266Z,93.50
2023-04-20T12:20:21.516Z,91.90
2023-04-20T12:22:49.399Z,90.90
2023-04-20T12:25:17.224Z,92.50
2023-04-20T12:27:45.144Z,97.10
2023-04-20T12:30:13.974Z,93.50
2023-04-20T12:32:41.853Z,93.30
2023-04-20T12:35:10.198Z,93.40
2023-04-20T12:37:42.320Z,93.30
2023-04-20T12:40:10.941Z,93.40
2023-04-20T12:42:41.578Z,93.20
2023-04-20T12:45:14.998Z,92.80
2023-04-20T12:47:42.893Z,94.40
2023-04-20T12:50:11.279Z,92.50
2023-04-20T12:52:39.540Z,92.00
2023-04-20T12:55:09.798Z,92.60
2023-04-20T12:57:43.666Z,92.50
2023-04-20T13:00:14.548Z,92.30
2023-04-20T13:02:42.854Z,91.80
2023-04-20T13:05:17.267Z,92.10
2023-04-20T13:07:45.268Z,92.00
2023-04-20T13:10:14.529Z,92.10
2023-04-20T13:12:45.280Z,91.80
2023-04-20T13:15:13.310Z,92.10
2023-04-20T13:17:47.563Z,92.90
2023-04-20T13:20:15.696Z,92.20
2023-04-20T13:22:56.796Z,92.40
2023-04-20T13:25:32.704Z,92.10
2023-04-20T13:28:02.557Z,92.30
2023-04-20T13:30:33.791Z,92.10
2023-04-20T13:33:04.691Z,91.50
2023-04-20T13:35:32.546Z,91.40
2023-04-20T13:38:03.822Z,91.50
2023-04-20T13:40:48.757Z,91.10
2023-04-20T13:43:22.384Z,90.80
2023-04-20T13:45:52.265Z,91.80
2023-04-20T13:48:22.828Z,90.90
2023-04-20T13:50:51.122Z,90.40
2023-04-20T13:53:18.983Z,89.40
2023-04-20T13:55:48.221Z,89.30
2023-04-20T13:58:22.023Z,89.10
2023-04-20T14:00:53.014Z,90.30
2023-04-20T14:03:27.004Z,88.70
2023-04-20T14:05:57.826Z,87.20
2023-04-20T14:08:28.971Z,87.20
2023-04-20T14:11:01.072Z,89.00
2023-04-20T14:13:31.997Z,88.60
2023-04-20T14:15:59.878Z,89.70
2023-04-20T14:18:33.308Z,89.00
2023-04-20T14:21:01.380Z,88.10
2023-04-20T14:23:35.239Z,86.60
2023-04-20T14:26:10.279Z,84.30
2023-04-20T14:28:38.194Z,84.20
2023-04-20T14:31:12.274Z,85.40
2023-04-20T14:33:41.456Z,85.60
2023-04-20T14:36:15.172Z,83.20
2023-04-20T14:38:43.081Z,83.80
2023-04-20T14:41:16.581Z,84.00
2023-04-20T14:43:44.439Z,85.90
2023-04-20T14:46:12.393Z,82.90
2023-04-20T14:48:40.294Z,86.10
2023-04-20T14:51:08.230Z,83.10
2023-04-20T14:53:47.887Z,86.00
2023-04-20T14:56:32.269Z,84.40
2023-04-20T14:59:02.678Z,87.80
2023-04-20T15:01:35.951Z,84.30
2023-04-20T15:04:13.204Z,81.50
2023-04-20T15:06:41.125Z,87.50
2023-04-20T15:09:09.013Z,82.40
2023-04-20T15:11:38.368Z,79.50
2023-04-20T15:14:09.331Z,80.00
2023-04-20T15:16:44.612Z,80.90
2023-04-20T15:19:18.662Z,84.30
2023-04-20T15:21:49.334Z,82.60
2023-04-20T15:24:26.112Z,82.30
2023-04-20T15:26:57.843Z,84.20
2023-04-20T15:29:31.765Z,82.30
2023-04-20T15:31:59.729Z,83.60
2023-04-20T15:34:30.470Z,91.50
2023-04-20T15:37:04.644Z,82.20
2023-04-20T15:39:35.666Z,89.00
2023-04-20T15:42:05.202Z,90.50
2023-04-20T15:44:36.204Z,88.60
2023-04-20T15:47:04.297Z,88.40
2023-04-20T15:49:40.733Z,88.30
2023-04-20T15:52:08.761Z,88.10
2023-04-20T15:54:55.177Z,87.20
2023-04-20T15:57:24.412Z,88.30
2023-04-20T15:59:55.117Z,87.90
2023-04-20T16:02:23.098Z,88.60
2023-04-20T16:04:51.163Z,88.20
2023-04-20T16:07:22.196Z,89.30
2023-04-20T16:09:53.273Z,87.90
2023-04-20T16:12:21.177Z,88.50
2023-04-20T16:14:51.821Z,88.50
2023-04-20T16:17:29.664Z,88.90
2023-04-20T16:20:06.144Z,90.30
2023-04-20T16:22:53.964Z,88.30
2023-04-20T16:25:28.389Z,87.80
2023-04-20T16:28:02.209Z,88.70
2023-04-20T16:30:34.341Z,86.10
2023-04-20T16:33:02.306Z,87.30
2023-04-20T16:35:30.425Z,87.80
2023-04-20T16:38:04.093Z,88.20
2023-04-20T16:40:42.493Z,87.90
2023-04-20T16:43:13.397Z,87.40
2023-04-20T16:45:42.707Z,88.70
2023-04-20T16:50:54.880Z,88.90
2023-04-20T16:53:28.758Z,88.90
2023-04-20T16:55:56.622Z,89.20
2023-04-20T16:58:24.604Z,90.70
2023-04-20T17:00:56.161Z,90.30
2023-04-20T17:03:27.346Z,90.20
2023-04-20T17:05:55.321Z,90.60
2023-04-20T17:08:30.560Z,91.30
2023-04-20T17:10:58.437Z,92.80
2023-04-20T17:13:29.050Z,93.40
2023-04-20T17:15:58.544Z,93.80
2023-04-20T17:18:26.505Z,94.70
2023-04-20T17:21:04.352Z,95.60
2023-04-20T17:23:34.556Z,95.40
2023-04-20T17:26:02.413Z,95.50
2023-04-20T17:28:30.532Z,98.00
2023-04-20T17:31:14.846Z,96.20
2023-04-20T17:33:43.366Z,95.90
2023-04-20T17:36:18.771Z,96.60
2023-04-20T17:38:46.671Z,96.30
2023-04-20T17:41:14.524Z,97.10
2023-04-20T17:43:58.418Z,97.70
2023-04-20T17:46:27.744Z,97.80
2023-04-20T17:48:58.159Z,97.20
2023-04-20T17:51:28.831Z,97.70
2023-04-20T17:53:56.685Z,98.70
2023-04-20T17:56:24.553Z,97.70
2023-04-20T17:58:58.327Z,98.20
2023-04-20T18:01:28.011Z,98.00
2023-04-20T18:03:59.132Z,98.60
2023-04-20T18:06:30.605Z,99.40
2023-04-20T18:09:01.541Z,99.40
2023-04-20T18:11:29.481Z,99.90
2023-04-20T18:14:01.058Z,99.20
2023-04-20T18:16:37.559Z,98.70
2023-04-20T18:19:14.248Z,99.20
2023-04-20T18:21:45.410Z,97.90
2023-04-20T18:24:16.208Z,98.30
2023-04-20T18:26:44.128Z,98.20
2023-04-20T18:29:12.084Z,97.70
2023-04-20T18:31:41.353Z,97.90
2023-04-20T18:34:11.480Z,97.60
2023-04-20T18:36:40.005Z,97.70
2023-04-20T18:39:16.256Z,98.20
2023-04-20T18:41:47.133Z,97.80
2023-04-20T18:44:15.065Z,98.60
2023-04-20T18:46:44.309Z,98.80
2023-04-20T18:49:15.876Z,99.80
2023-04-20T18:51:43.754Z,98.00
2023-04-20T18:54:11.586Z,98.10
2023-04-20T18:56:42.760Z,97.90
2023-04-20T18:59:13.378Z,97.90
2023-04-20T19:01:41.561Z,98.30
2023-04-20T19:04:19.962Z,98.70
2023-04-20T19:09:32.873Z,98.80
2023-04-20T19:12:01.430Z,98.70
2023-04-20T19:14:32.115Z,99.80
2023-04-20T19:17:11.797Z,98.80
2023-04-20T19:19:55.185Z,98.60
2023-04-20T19:22:26.080Z,98.90
2023-04-20T19:25:00.086Z,98.50
2023-04-20T19:27:33.847Z,99.30
2023-04-20T19:30:05.260Z,99.40
2023-04-20T19:32:33.277Z,99.90
2023-04-20T19:35:05.217Z,99.30
2023-04-20T19:37:35.664Z,99.30
2023-04-20T19:40:06.086Z,98.60
2023-04-20T19:42:33.946Z,99.40
2023-04-20T19:45:01.836Z,98.70
2023-04-20T19:47:36.526Z,98.60
2023-04-20T19:50:06.847Z,99.00
2023-04-20T19:52:35.289Z,98.70
2023-04-20T19:55:04.594Z,99.00
2023-04-20T19:57:32.567Z,98.80
2023-04-20T20:00:00.721Z,98.80
2023-04-20T20:02:45.462Z,98.80
2023-04-20T20:05:14.964Z,98.80
2023-04-20T20:07:46.090Z,99.00
2023-04-20T20:10:15.773Z,98.80
2023-04-20T20:12:43.871Z,99.10
2023-04-20T20:15:11.875Z,98.80
2023-04-20T20:17:47.565Z,99.50
2023-04-20T20:20:16.801Z,99.40
2023-04-20T20:22:48.328Z,98.80
2023-04-20T20:25:16.371Z,99.50
2023-04-20T20:27:44.712Z,99.60
2023-04-20T20:30:13.742Z,99.90
2023-04-20T20:32:41.888Z,99.90
2023-04-20T20:35:12.989Z,99.90
2023-04-20T20:37:45.152Z,99.90
2023-04-20T20:40:15.175Z,99.80
2023-04-20T20:42:47.663Z,99.90
2023-04-20T20:45:18.408Z,99.90
2023-04-20T20:47:46.704Z,99.70
2023-04-20T20:50:16.046Z,99.90
2023-04-20T20:52:45.412Z,99.90
2023-04-20T20:55:16.716Z,99.90
2023-04-20T20:57:49.629Z,99.90
2023-04-20T21:00:20.261Z,99.90
2023-04-20T21:02:54.412Z,99.90
2023-04-20T21:05:29.828Z,99.80
2023-04-20T21:08:05.567Z,99.70
2023-04-20T21:10:38.468Z,99.90
2023-04-20T21:13:07.160Z,99.90
2023-04-20T21:15:41.182Z,99.90
2023-04-20T21:18:12.924Z,99.90
2023-04-20T21:20:47.061Z,99.70
2023-04-20T21:23:27.908Z,99.40
2023-04-20T21:26:05.396Z,99.70
2023-04-20T21:28:39.173Z,99.70
2023-04-20T21:31:07.072Z,99.90
2023-04-20T21:33:40.729Z,99.90
2023-04-20T21:36:17.733Z,99.60
2023-04-20T21:38:46.986Z,99.60
2023-04-20T21:41:17.258Z,99.80
2023-04-20T21:43:45.509Z,99.90
2023-04-20T21:46:15.652Z,99.70
2023-04-20T21:48:43.765Z,99.90
2023-04-20T21:51:15.972Z,99.90
2023-04-20T21:53:43.856Z,99.90
2023-04-20T21:56:16.103Z,99.90
2023-04-20T21:58:43.974Z,99.90
2023-04-20T22:01:25.851Z,99.90
2023-04-20T22:03:57.372Z,99.90
2023-04-20T22:06:43.694Z,99.90
2023-04-20T22:09:11.707Z,99.80
2023-04-20T22:11:41.000Z,99.90
2023-04-20T22:14:14.765Z,99.90
2023-04-20T22:16:46.061Z,99.90
2023-04-20T22:19:17.566Z,99.90
2023-04-20T22:21:45.646Z,99.90
2023-04-20T22:24:22.880Z,99.90
2023-04-20T22:26:52.197Z,99.80
2023-04-20T22:29:20.219Z,99.90
2023-04-20T22:31:48.842Z,99.90
2023-04-20T22:34:16.756Z,99.90
2023-04-20T22:36:47.706Z,99.90
2023-04-20T22:39:15.801Z,99.90
2023-04-20T22:41:46.492Z,99.90
2023-04-20T22:44:17.983Z,99.90
2023-04-20T22:46:46.142Z,99.90
2023-04-20T22:49:14.964Z,99.90
2023-04-20T22:51:43.256Z,99.90
2023-04-20T22:54:17.361Z,99.90
2023-04-20T22:56:48.060Z,99.90
2023-04-20T22:59:17.515Z,99.90
2023-04-20T23:01:45.722Z,99.90
2023-04-20T23:04:18.565Z,99.90
2023-04-20T23:06:49.262Z,99.90
2023-04-20T23:09:20.650Z,99.90
2023-04-20T23:11:53.729Z,99.90
2023-04-20T23:14:23.739Z,99.90
2023-04-20T23:16:59.929Z,99.90
2023-04-20T23:19:33.038Z,99.90
2023-04-20T23:22:04.397Z,99.90
2023-04-20T23:24:32.259Z,99.90
2023-04-20T23:27:06.380Z,99.90
2023-04-20T23:29:38.005Z,99.90
2023-04-20T23:32:06.268Z,99.90
2023-04-20T23:34:36.989Z,99.90
2023-04-20T23:37:10.751Z,99.90
2023-04-20T23:39:44.748Z,99.90
2023-04-20T23:42:12.608Z,99.90
2023-04-20T23:44:41.843Z,99.90
2023-04-20T23:47:09.696Z,99.90
2023-04-20T23:49:40.740Z,99.90
2023-04-20T23:52:08.701Z,99.90
2023-04-20T23:54:45.973Z,99.90
2023-04-20T23:57:13.845Z,99.90
2023-04-20T23:59:48.598Z,99.90
